Time;durP1;ratioP1;P1;durP2;ratioP2;P2;SDS_P1;SDS_P2;PMS_P1;PMS_P2;Temp;Humidity;BMP_temperature;BMP_pressure;BME280_temperature;BME280_humidity;BME280_pressure;Samples;Min_cycle;Max_cycle;Signal;HPM_P1;HPM_P2
2022/09/04 00:00:08;;;;;;;6.28;1.95;;;;;;;;;;5029665;28;20676;-52
2022/09/04 00:02:47;;;;;;;7.05;2.45;;;16.60;99.90;;;;;;5031567;28;20088;-51
2022/09/04 00:05:26;;;;;;;7.35;1.88;;;15.90;99.90;;;;;;5031151;28;20104;-52
2022/09/04 00:08:07;;;;;;;5.78;1.77;;;;;;;;;;5036151;28;20040;-53
2022/09/04 00:10:40;;;;;;;7.37;2.87;;;;;;;;;;5033326;28;20041;-52
2022/09/04 00:13:16;;;;;;;10.05;1.90;;;;;;;;;;5036574;28;20525;-52
2022/09/04 00:15:50;;;;;;;4.47;1.98;;;;;;;;;;5036463;28;20038;-52
2022/09/04 00:18:25;;;;;;;5.97;2.00;;;16.20;99.90;;;;;;5036292;28;20471;-51
2022/09/04 00:21:05;;;;;;;5.70;2.40;;;16.60;99.90;;;;;;5033816;28;20084;-52
2022/09/04 00:24:08;;;;;;;4.90;1.92;;;16.50;99.90;;;;;;5036396;28;20033;-52
2022/09/04 00:26:37;;;;;;;5.28;1.77;;;;;;;;;;4990716;28;20111;-52
2022/09/04 00:29:13;;;;;;;6.60;1.83;;;15.80;99.90;;;;;;5029576;28;20037;-52
2022/09/04 00:31:43;;;;;;;5.78;2.33;;;15.60;99.90;;;;;;5032129;28;20060;-52
2022/09/04 00:34:17;;;;;;;5.82;1.90;;;16.10;99.90;;;;;;5030334;28;20055;-50
2022/09/04 00:36:46;;;;;;;5.93;2.40;;;;;;;;;;5032230;28;20079;-52
2022/09/04 00:39:21;;;;;;;5.03;1.83;;;15.50;99.90;;;;;;4999101;28;20045;-52
2022/09/04 00:41:47;;;;;;;;;;;;;;;;;;5033542;28;20049;-52
2022/09/04 00:44:15;;;;;;;4.55;1.63;;;;;;;;;;5031934;28;19924;-52
2022/09/04 00:46:54;;;;;;;7.38;2.30;;;;;;;;;;5030986;28;20594;-51
2022/09/04 00:49:26;;;;;;;5.30;2.13;;;;;;;;;;5032491;28;20073;-52
2022/09/04 00:52:10;;;;;;;6.13;2.00;;;;;;;;;;5032358;28;20519;-52
2022/09/04 00:54:49;;;;;;;5.47;2.20;;;15.60;99.90;;;;;;5030414;28;20045;-52
2022/09/04 00:57:33;;;;;;;5.30;2.13;;;;;;;;;;5031970;28;20040;-52
2022/09/04 01:00:14;;;;;;;5.00;2.20;;;15.20;99.90;;;;;;5026636;28;20071;-51
2022/09/04 01:02:55;;;;;;;5.95;2.25;;;;;;;;;;5031188;28;20073;-52
2022/09/04 01:05:34;;;;;;;6.53;2.17;;;;;;;;;;5010740;28;20037;-51
2022/09/04 01:08:06;;;;;;;5.30;2.15;;;;;;;;;;5026236;28;20499;-52
2022/09/04 01:10:51;;;;;;;5.05;2.10;;;;;;;;;;5031650;28;20061;-53
2022/09/04 01:13:47;;;;;;;9.57;2.25;;;15.30;99.90;;;;;;5032059;28;20499;-52
2022/09/04 01:16:24;;;;;;;5.65;2.15;;;14.90;99.90;;;;;;5026789;28;20069;-53
2022/09/04 01:19:14;;;;;;;8.63;2.25;;;15.30;99.90;;;;;;5031790;28;20084;-52
2022/09/04 01:21:57;;;;;;;6.38;2.13;;;15.00;99.90;;;;;;5029108;28;20045;-52
2022/09/04 01:25:01;;;;;;;6.35;2.03;;;15.30;99.90;;;;;;5032265;28;20036;-53
2022/09/04 01:27:39;;;;;;;7.53;2.45;;;;;;;;;;5028428;28;20507;-51
2022/09/04 01:30:19;;;;;;;5.75;2.00;;;15.00;99.90;;;;;;5032021;28;20069;-51
2022/09/04 01:33:05;;;;;;;5.80;2.17;;;;;;;;;;5032008;28;20099;-52
2022/09/04 01:35:55;;;;;;;6.25;2.40;;;15.30;99.90;;;;;;5026789;28;20466;-52
2022/09/04 01:38:33;;;;;;;6.28;2.30;;;;;;;;;;5031621;28;20042;-51
2022/09/04 01:41:22;;;;;;;5.88;2.13;;;14.50;99.90;;;;;;5024703;28;20095;-52
2022/09/04 01:43:51;;;;;;;8.40;2.45;;;;;;;;;;5027437;28;20044;-52
2022/09/04 01:46:20;;;;;;;5.53;2.35;;;;;;;;;;5031920;28;20037;-52
2022/09/04 01:49:22;;;;;;;6.00;2.30;;;15.20;99.90;;;;;;5031400;28;20033;-52
2022/09/04 01:52:35;;;;;;;5.50;2.15;;;15.20;99.90;;;;;;5027399;28;20065;-52
2022/09/04 01:55:25;;;;;;;5.95;2.30;;;14.70;99.90;;;;;;5005965;28;20125;-52
2022/09/04 01:58:09;;;;;;;5.82;2.30;;;14.30;99.90;;;;;;5029152;28;20112;-52
2022/09/04 02:00:45;;;;;;;7.05;2.50;;;;;;;;;;5027749;28;20515;-52
2022/09/04 02:03:11;;;;;;;5.93;2.40;;;;;;;;;;5025558;28;20113;-52
2022/09/04 02:05:40;;;;;;;7.22;2.80;;;14.80;99.90;;;;;;5031614;28;20038;-53
2022/09/04 02:08:27;;;;;;;8.88;3.35;;;;;;;;;;5030488;28;20033;-52
2022/09/04 02:11:19;;;;;;;5.53;2.50;;;14.50;99.90;;;;;;5023819;28;20235;-51
2022/09/04 02:14:39;;;;;;;5.32;2.60;;;14.90;99.90;;;;;;5016195;28;20477;-52
2022/09/04 02:17:35;;;;;;;5.20;2.47;;;14.90;99.90;;;;;;4969455;28;20058;-51
2022/09/04 02:20:10;;;;;;;7.75;2.67;;;;;;;;;;4958725;28;20529;-51
2022/09/04 02:23:10;;;;;;;7.35;2.60;;;14.40;99.90;;;;;;4967501;28;20045;-52
2022/09/04 02:25:55;;;;;;;5.85;2.80;;;;;;;;;;5005046;28;20053;-49
2022/09/04 02:28:39;;;;;;;7.35;2.70;;;;;;;;;;5021897;28;20112;-52
2022/09/04 02:31:20;;;;;;;13.10;3.05;;;;;;;;;;5024460;28;20507;-51
2022/09/04 02:33:59;;;;;;;7.45;3.28;;;14.30;99.90;;;;;;5028906;28;20045;-52
2022/09/04 02:36:25;;;;;;;8.05;2.65;;;;;;;;;;5030353;28;20033;-52
2022/09/04 02:39:13;;;;;;;5.10;2.60;;;14.20;99.90;;;;;;5028542;28;20044;-51
2022/09/04 02:41:53;;;;;;;7.55;2.70;;;;;;;;;;5026560;28;20049;-51
2022/09/04 02:44:26;;;;;;;8.50;2.92;;;;;;;;;;5030177;28;20107;-51
2022/09/04 02:47:23;;;;;;;6.72;2.75;;;14.20;99.90;;;;;;5029825;28;20459;-51
2022/09/04 02:50:11;;;;;;;7.53;2.78;;;;;;;;;;5030144;28;20515;-51
2022/09/04 02:52:40;;;;;;;6.00;3.15;;;;;;;;;;5025870;28;20127;-52
2022/09/04 02:55:25;;;;;;;7.28;3.30;;;;;;;;;;5022312;28;20037;-52
2022/09/04 02:57:53;;;;;;;6.07;3.10;;;;;;;;;;5011855;28;20045;-53
2022/09/04 03:00:20;;;;;;;5.50;2.60;;;;;;;;;;5029864;28;20066;-51
2022/09/04 03:02:57;;;;;;;8.23;3.22;;;;;;;;;;5030253;28;20127;-52
2022/09/04 03:05:46;;;;;;;5.85;3.20;;;13.50;99.90;;;;;;5030000;28;20037;-52
2022/09/04 03:08:17;;;;;;;6.50;3.00;;;13.50;99.90;;;;;;5024462;28;20026;-53
2022/09/04 03:11:10;;;;;;;6.65;2.80;;;13.30;99.90;;;;;;5030247;28;20407;-52
2022/09/04 03:13:46;;;;;;;5.32;2.88;;;14.20;99.90;;;;;;5030063;28;20103;-52
2022/09/04 03:16:18;;;;;;;10.07;3.85;;;;;;;;;;5030252;28;20060;-52
2022/09/04 03:18:51;;;;;;;6.28;3.42;;;;;;;;;;5029586;28;20640;-49
2022/09/04 03:21:23;;;;;;;7.03;2.92;;;14.40;99.90;;;;;;5027677;28;20513;-52
2022/09/04 03:24:00;;;;;;;6.93;3.00;;;;;;;;;;5029069;28;20541;-50
2022/09/04 03:26:38;;;;;;;6.18;2.70;;;14.30;99.90;;;;;;5029797;28;20049;-50
2022/09/04 03:29:05;;;;;;;7.13;2.97;;;;;;;;;;5004908;28;20041;-52
2022/09/04 03:31:57;;;;;;;7.93;3.20;;;13.80;99.90;;;;;;5012082;28;20045;-49
2022/09/04 03:34:28;;;;;;;5.68;3.20;;;13.80;99.90;;;;;;5029866;28;20120;-49
2022/09/04 03:37:19;;;;;;;5.78;2.67;;;14.10;99.90;;;;;;5021718;28;20415;-52
2022/09/04 03:40:14;;;;;;;6.95;2.75;;;;;;;;;;5029322;28;20033;-51
2022/09/04 03:42:49;;;;;;;5.82;3.10;;;13.80;99.90;;;;;;5029924;28;20041;-50
2022/09/04 03:45:21;;;;;;;8.07;3.20;;;;;;;;;;5029977;28;20042;-49
2022/09/04 03:48:05;;;;;;;6.28;2.80;;;;;;;;;;5029435;28;20586;-51
2022/09/04 03:50:56;;;;;;;5.60;2.92;;;14.20;99.90;;;;;;5026827;28;20434;-50
2022/09/04 03:53:45;;;;;;;5.45;2.72;;;;;;;;;;5029410;28;20033;-51
2022/09/04 03:56:23;;;;;;;8.93;3.28;;;;;;;;;;5012175;28;20218;-52
2022/09/04 03:59:01;;;;;;;5.78;2.97;;;13.90;99.90;;;;;;5029009;28;20030;-52
2022/09/04 04:01:31;;;;;;;6.03;3.13;;;;;;;;;;5025756;28;20029;-52
2022/09/04 04:04:02;;;;;;;6.30;2.72;;;;;;;;;;5029710;28;20038;-51
2022/09/04 04:06:31;;;;;;;5.18;2.90;;;;;;;;;;5029707;28;20112;-52
2022/09/04 04:09:13;;;;;;;5.20;2.85;;;13.30;99.90;;;;;;5011391;28;20041;-51
2022/09/04 04:11:46;;;;;;;5.40;2.63;;;13.90;99.90;;;;;;5031982;28;20068;-50
2022/09/04 04:14:28;;;;;;;6.70;3.25;;;13.10;99.90;;;;;;5033143;28;20266;-50
2022/09/04 04:17:03;;;;;;;6.95;3.47;;;;;;;;;;5029757;28;20042;-49
2022/09/04 04:19:39;;;;;;;6.10;3.25;;;;;;;;;;5029784;28;20117;-52
2022/09/04 04:22:31;;;;;;;8.02;3.00;;;;;;;;;;5027036;28;20042;-52
2022/09/04 04:25:23;;;;;;;7.07;3.38;;;13.80;99.90;;;;;;5008214;28;20067;-51
2022/09/04 04:28:18;;;;;;;8.32;3.38;;;;;;;;;;5030167;28;20068;-52
2022/09/04 04:30:54;;;;;;;5.55;3.00;;;;;;;;;;5032198;28;20060;-50
2022/09/04 04:36:52;;;;;;;5.85;2.92;;;;;;;;;;5004953;28;20091;-83
2022/09/04 04:39:23;;;;;;;6.40;3.15;;;;;;;;;;5021361;28;20045;-83
2022/09/04 04:42:04;;;;;;;5.13;2.72;;;;;;;;;;4987805;28;20052;-83
2022/09/04 04:47:49;;;;;;;6.88;3.28;;;;;;;;;;5011343;28;20042;-83
2022/09/04 04:50:21;;;;;;;6.15;3.65;;;;;;;;;;5001289;28;20057;-83
2022/09/04 04:53:06;;;;;;;6.38;3.10;;;;;;;;;;5014296;28;20319;-83
2022/09/04 04:55:52;;;;;;;5.40;3.03;;;14.30;99.90;;;;;;4996926;28;20168;-84
2022/09/04 04:58:23;;;;;;;8.80;3.38;;;;;;;;;;5029937;28;20633;-83
2022/09/04 05:01:08;;;;;;;5.97;3.25;;;;;;;;;;4997635;28;20042;-83
2022/09/04 05:03:34;;;;;;;;;;;;;;;;;;5031717;28;20045;-83
2022/09/04 05:06:09;;;;;;;6.60;3.30;;;;;;;;;;5031112;28;19921;-83
2022/09/04 05:08:49;;;;;;;6.43;3.30;;;;;;;;;;5012619;28;20052;-83
2022/09/04 05:11:27;;;;;;;7.65;2.80;;;;;;;;;;5046208;28;20069;-83
2022/09/04 05:14:12;;;;;;;6.97;3.22;;;;;;;;;;5007705;28;20103;-83
2022/09/04 05:16:47;;;;;;;7.28;3.13;;;;;;;;;;5017711;28;20045;-83
2022/09/04 05:19:19;;;;;;;7.30;3.25;;;;;;;;;;5017089;28;20133;-83
2022/09/04 05:21:57;;;;;;;5.88;3.05;;;;;;;;;;5015342;28;20045;-83
2022/09/04 05:24:48;;;;;;;7.60;3.25;;;;;;;;;;5015551;28;20047;-83
2022/09/04 05:27:20;;;;;;;8.75;3.10;;;;;;;;;;5008065;28;20042;-83
2022/09/04 05:29:59;;;;;;;8.30;3.75;;;;;;;;;;5007358;28;20083;-83
2022/09/04 05:32:29;;;;;;;6.75;3.63;;;;;;;;;;5032002;28;20516;-83
2022/09/04 05:35:07;;;;;;;7.25;3.28;;;;;;;;;;5010440;28;20103;-83
2022/09/04 05:38:08;;;;;;;7.13;3.53;;;;;;;;;;5012175;28;20055;-83
2022/09/04 05:40:57;;;;;;;6.57;3.38;;;;;;;;;;4951861;28;20054;-83
2022/09/04 05:43:34;;;;;;;6.72;3.30;;;14.60;99.90;;;;;;5000199;28;20321;-83
2022/09/04 05:46:30;;;;;;;8.35;3.70;;;;;;;;;;5005312;28;20506;-83
2022/09/04 05:48:59;;;;;;;6.85;3.65;;;13.60;99.90;;;;;;4995261;28;20138;-84
2022/09/04 05:51:36;;;;;;;6.80;3.83;;;;;;;;;;5030339;28;20045;-83
2022/09/04 05:54:44;;;;;;;12.30;3.88;;;14.40;99.90;;;;;;5012178;28;20212;-83
2022/09/04 05:57:47;;;;;;;7.38;3.20;;;14.80;99.90;;;;;;5009562;28;20056;-82
2022/09/04 06:00:18;;;;;;;6.70;3.33;;;14.50;99.90;;;;;;4991899;28;20069;-82
2022/09/04 06:03:20;;;;;;;6.13;3.33;;;14.10;99.90;;;;;;5009636;28;20036;-83
2022/09/04 06:05:58;;;;;;;6.13;3.13;;;;;;;;;;5010926;28;20049;-83
2022/09/04 06:08:32;;;;;;;6.47;3.35;;;14.90;99.90;;;;;;5010630;28;20355;-83
2022/09/04 06:10:58;;;;;;;6.28;3.67;;;;;;;;;;5011055;28;20052;-83
2022/09/04 06:13:30;;;;;;;6.25;3.80;;;;;;;;;;5010704;28;20038;-82
2022/09/04 06:16:17;;;;;;;6.65;3.42;;;14.90;99.90;;;;;;4994067;28;20038;-83
2022/09/04 06:19:11;;;;;;;6.50;3.60;;;14.30;99.90;;;;;;4993895;28;20848;-84
2022/09/04 06:21:40;;;;;;;5.95;3.40;;;;;;;;;;5011755;28;20041;-82
2022/09/04 06:24:24;;;;;;;6.28;3.55;;;;;;;;;;4994289;28;20127;-83
2022/09/04 06:27:09;;;;;;;6.43;3.40;;;14.40;99.90;;;;;;5028035;28;20048;-83
2022/09/04 06:29:41;;;;;;;6.38;3.70;;;;;;;;;;5022213;28;20101;-83
2022/09/04 06:32:21;;;;;;;11.52;4.07;;;14.80;99.90;;;;;;4994201;28;20055;-83
2022/09/04 06:35:15;;;;;;;8.70;3.58;;;15.30;99.90;;;;;;5006552;28;20083;-83
2022/09/04 06:38:02;;;;;;;8.48;3.63;;;15.10;99.90;;;;;;4992047;28;20045;-83
2022/09/04 06:40:56;;;;;;;7.20;3.72;;;15.80;99.90;;;;;;5006464;28;20071;-83
2022/09/04 06:43:35;;;;;;;7.22;3.40;;;15.40;99.90;;;;;;5027799;28;20064;-83
2022/09/04 06:46:25;;;;;;;5.75;2.95;;;15.40;99.90;;;;;;5004027;28;20076;-82
2022/09/04 06:49:02;;;;;;;11.35;3.70;;;15.10;99.90;;;;;;5008848;28;20056;-83
2022/09/04 06:52:02;;;;;;;7.75;3.50;;;16.40;99.90;;;;;;5027356;28;20117;-81
2022/09/04 06:54:44;;;;;;;7.03;3.53;;;15.40;99.90;;;;;;5009407;28;20037;-83
2022/09/04 06:57:12;;;;;;;6.80;3.40;;;15.40;99.90;;;;;;4992025;28;20650;-82
2022/09/04 06:59:53;;;;;;;5.80;3.33;;;15.50;99.90;;;;;;5027595;28;20327;-83
2022/09/04 07:02:21;;;;;;;7.63;3.05;;;;;;;;;;5012007;28;20048;-83
2022/09/04 07:05:08;;;;;;;5.88;2.97;;;15.50;99.90;;;;;;5011680;28;20268;-84
2022/09/04 07:08:06;;;;;;;6.28;3.20;;;16.30;99.90;;;;;;5029074;28;20045;-83
2022/09/04 07:11:16;;;;;;;8.02;3.80;;;16.20;99.90;;;;;;5013095;28;20433;-83
2022/09/04 07:14:15;;;;;;;5.70;3.00;;;15.70;99.90;;;;;;4950422;29;20050;-84
2022/09/04 07:16:46;;;;;;;6.70;3.63;;;17.00;99.90;;;;;;4950587;28;20043;-83
2022/09/04 07:19:31;;;;;;;7.13;3.20;;;16.90;99.90;;;;;;5012071;28;20052;-83
2022/09/04 07:22:22;;;;;;;6.95;3.78;;;16.50;99.90;;;;;;4998342;28;20109;-84
2022/09/04 07:24:51;;;;;;;6.53;3.28;;;16.90;99.90;;;;;;5028689;28;20065;-84
2022/09/04 07:27:38;;;;;;;6.25;3.28;;;17.10;99.90;;;;;;5028541;28;20052;-83
2022/09/04 07:30:12;;;;;;;5.97;3.17;;;17.40;99.90;;;;;;5005043;28;20297;-83
2022/09/04 07:32:50;;;;;;;9.65;3.70;;;16.90;99.90;;;;;;5029542;28;20052;-82
2022/09/04 07:35:35;;;;;;;6.90;3.33;;;17.80;99.90;;;;;;5005961;28;20049;-83
2022/09/04 07:38:03;;;;;;;6.32;2.95;;;17.00;99.90;;;;;;5006009;28;20041;-84
2022/09/04 07:40:38;;;;;;;10.00;3.78;;;17.00;99.90;;;;;;5010413;28;20073;-84
2022/09/04 07:43:24;;;;;;;8.27;3.38;;;16.70;99.90;;;;;;4991675;28;20042;-84
2022/09/04 07:46:04;;;;;;;6.10;3.05;;;16.70;99.90;;;;;;5012561;28;20037;-84
2022/09/04 07:48:40;;;;;;;6.32;3.05;;;17.20;99.90;;;;;;5011123;28;20041;-84
2022/09/04 07:51:12;;;;;;;7.93;3.10;;;17.10;99.90;;;;;;4996868;28;20146;-83
2022/09/04 07:53:46;;;;;;;7.40;3.25;;;17.30;99.90;;;;;;5031620;28;20101;-83
2022/09/04 07:56:44;;;;;;;5.88;2.80;;;15.20;99.90;;;;;;5013600;28;20079;-83
2022/09/04 07:59:34;;;;;;;5.55;3.10;;;17.70;99.90;;;;;;5009303;28;20041;-83
2022/09/04 08:02:15;;;;;;;7.57;3.08;;;18.10;99.90;;;;;;5041811;28;21590;-84
2022/09/04 08:05:02;;;;;;;5.90;2.50;;;17.80;99.90;;;;;;5023447;28;20060;-83
2022/09/04 08:07:46;;;;;;;6.38;3.00;;;18.60;99.90;;;;;;5015821;28;20475;-83
2022/09/04 08:10:41;;;;;;;10.68;3.33;;;20.10;99.90;;;;;;5000243;28;20467;-83
2022/09/04 08:13:22;;;;;;;5.22;2.72;;;19.10;99.90;;;;;;5009252;28;20472;-84
2022/09/04 08:16:16;;;;;;;5.43;2.90;;;18.20;99.90;;;;;;5015393;28;20046;-84
2022/09/04 08:18:56;;;;;;;5.13;2.58;;;19.20;99.90;;;;;;5015817;28;20049;-83
2022/09/04 08:21:41;;;;;;;8.40;3.72;;;19.50;99.90;;;;;;5022127;28;20445;-83
2022/09/04 08:24:40;;;;;;;6.00;2.78;;;19.60;99.90;;;;;;5036595;28;20069;-84
2022/09/04 08:27:37;;;;;;;6.57;3.15;;;19.70;99.90;;;;;;5025475;28;20041;-83
2022/09/04 08:30:09;;;;;;;6.50;2.85;;;19.60;99.90;;;;;;5018715;28;20046;-84
2022/09/04 08:33:11;;;;;;;8.13;2.95;;;19.40;99.90;;;;;;5024956;28;20041;-83
2022/09/04 08:35:50;;;;;;;5.35;3.10;;;19.80;99.90;;;;;;4988649;28;20132;-83
2022/09/04 08:38:27;;;;;;;6.00;3.22;;;19.90;99.90;;;;;;5003631;28;20502;-83
2022/09/04 08:41:07;;;;;;;5.72;2.75;;;19.80;99.90;;;;;;5005856;28;20184;-84
2022/09/04 08:43:54;;;;;;;7.45;2.50;;;19.80;99.90;;;;;;5021028;28;20052;-84
2022/09/04 08:46:47;;;;;;;6.63;2.92;;;20.20;99.90;;;;;;5027472;28;20076;-84
2022/09/04 08:49:18;;;;;;;5.50;2.78;;;20.40;99.90;;;;;;5005535;28;20037;-83
2022/09/04 08:52:05;;;;;;;5.32;2.63;;;20.20;99.90;;;;;;5010437;28;20041;-83
2022/09/04 08:54:55;;;;;;;6.00;2.90;;;20.30;99.90;;;;;;4993445;28;20056;-84
2022/09/04 08:57:48;;;;;;;6.68;3.00;;;20.30;99.90;;;;;;4988640;28;20784;-84
2022/09/04 09:00:19;;;;;;;6.63;3.00;;;20.50;99.90;;;;;;5009849;28;20489;-83
2022/09/04 09:03:15;;;;;;;5.45;3.03;;;20.50;99.90;;;;;;5010995;28;20138;-83
2022/09/04 09:06:05;;;;;;;5.18;2.85;;;21.10;99.90;;;;;;5008706;28;20081;-84
2022/09/04 09:08:49;;;;;;;5.18;2.70;;;20.60;99.90;;;;;;5026870;28;20413;-83
2022/09/04 09:11:15;;;;;;;5.75;2.92;;;21.60;99.90;;;;;;5010020;28;20357;-84
2022/09/04 09:13:55;;;;;;;6.93;2.78;;;21.50;99.90;;;;;;5021366;28;20087;-84
2022/09/04 09:16:34;;;;;;;5.47;2.70;;;22.00;99.90;;;;;;5010031;28;20125;-84
2022/09/04 09:19:18;;;;;;;7.95;3.03;;;22.30;99.90;;;;;;5008365;28;20678;-83
2022/09/04 09:22:02;;;;;;;5.68;2.85;;;20.30;99.90;;;;;;5009566;28;20509;-84
2022/09/04 09:24:53;;;;;;;6.13;2.42;;;24.00;99.90;;;;;;5013602;28;20041;-84
2022/09/04 09:27:47;;;;;;;5.32;2.60;;;22.40;99.90;;;;;;5006618;28;20618;-84
2022/09/04 09:30:19;;;;;;;7.53;2.93;;;22.20;99.90;;;;;;4987105;28;20037;-84
2022/09/04 09:32:57;;;;;;;6.38;2.97;;;22.40;99.90;;;;;;5010631;28;20072;-84
2022/09/04 09:35:31;;;;;;;7.68;2.67;;;22.40;99.90;;;;;;5013226;28;20712;-84
2022/09/04 09:38:09;;;;;;;6.68;2.70;;;22.60;99.90;;;;;;5020484;28;20056;-84
2022/09/04 09:40:46;;;;;;;5.82;2.80;;;21.30;99.90;;;;;;5010021;28;20045;-84
2022/09/04 09:43:50;;;;;;;6.35;2.60;;;24.50;99.90;;;;;;5005532;28;20041;-84
2022/09/04 09:46:31;;;;;;;6.32;2.45;;;22.90;99.90;;;;;;5022928;28;20513;-84
2022/09/04 09:49:24;;;;;;;6.70;2.42;;;22.60;99.90;;;;;;5019766;28;20069;-84
2022/09/04 09:52:08;;;;;;;4.70;2.33;;;23.60;99.90;;;;;;5027534;28;20052;-84
2022/09/04 09:54:59;;;;;;;4.80;2.30;;;22.80;99.90;;;;;;5008920;28;20052;-84
2022/09/04 09:57:45;;;;;;;5.38;2.72;;;23.60;99.90;;;;;;5027351;28;20067;-83
2022/09/04 10:00:16;;;;;;;9.30;2.50;;;23.10;99.90;;;;;;5010783;28;20037;-83
2022/09/04 10:03:39;;;;;;;6.00;2.80;;;23.40;99.90;;;;;;5009154;28;20527;-84
2022/09/04 10:06:32;;;;;;;6.53;2.38;;;23.80;99.90;;;;;;4963668;28;20045;-83
2022/09/04 10:09:24;;;;;;;6.05;2.58;;;23.60;99.90;;;;;;4998269;28;20140;-84
2022/09/04 10:12:26;;;;;;;6.50;2.33;;;24.70;99.90;;;;;;5006204;28;20487;-84
2022/09/04 10:15:12;;;;;;;5.82;2.60;;;23.90;99.90;;;;;;5005299;28;20037;-84
2022/09/04 10:17:53;;;;;;;4.50;2.10;;;24.80;99.90;;;;;;5022955;28;20459;-84
2022/09/04 10:20:39;;;;;;;6.10;2.42;;;23.80;99.90;;;;;;5005481;28;20156;-84
2022/09/04 10:23:07;;;;;;;5.72;2.60;;;24.70;99.90;;;;;;4999371;28;20045;-84
2022/09/04 10:26:15;;;;;;;5.72;2.70;;;24.70;99.90;;;;;;5023557;28;20050;-84
2022/09/04 10:29:08;;;;;;;4.82;2.45;;;24.10;99.90;;;;;;5008653;28;20049;-85
2022/09/04 10:31:52;;;;;;;6.63;2.60;;;24.90;99.90;;;;;;5022857;28;20060;-83
2022/09/04 10:34:35;;;;;;;7.10;2.80;;;23.00;99.90;;;;;;5019673;28;20049;-84
2022/09/04 10:37:20;;;;;;;5.43;2.30;;;25.50;99.90;;;;;;5018594;28;20041;-85
2022/09/04 10:42:51;;;;;;;5.13;2.38;;;25.10;99.90;;;;;;5005502;28;20134;-85
2022/09/04 10:45:17;;;;;;;5.25;2.58;;;25.00;99.90;;;;;;5005669;28;20072;-85
2022/09/04 10:48:14;;;;;;;5.25;2.15;;;27.20;99.90;;;;;;5016564;28;20139;-85
2022/09/04 10:51:07;;;;;;;4.30;2.17;;;26.10;99.90;;;;;;5028974;28;20089;-85
2022/09/04 10:53:53;;;;;;;5.30;2.65;;;26.20;99.90;;;;;;5011146;28;20045;-86
2022/09/04 10:56:52;;;;;;;5.88;2.50;;;26.10;99.90;;;;;;5008443;28;20261;-85
2022/09/04 10:59:46;;;;;;;5.75;2.40;;;26.70;99.90;;;;;;4987230;28;20060;-85
2022/09/04 11:02:31;;;;;;;4.75;2.30;;;26.50;99.90;;;;;;5017589;28;20112;-84
2022/09/04 11:05:35;;;;;;;7.10;2.13;;;26.60;99.90;;;;;;5003845;28;20561;-85
2022/09/04 11:08:38;;;;;;;6.18;3.15;;;25.90;99.90;;;;;;5001039;28;20038;-85
2022/09/04 11:11:22;;;;;;;5.47;2.42;;;26.50;99.90;;;;;;5015900;28;20045;-87
2022/09/04 11:14:26;;;;;;;7.72;2.50;;;27.10;99.90;;;;;;5004963;28;20475;-85
2022/09/04 11:17:13;;;;;;;5.18;2.17;;;27.20;99.90;;;;;;5022672;28;20103;-84
2022/09/04 11:20:16;;;;;;;4.75;2.20;;;26.90;99.90;;;;;;5005109;28;20623;-84
2022/09/04 11:23:07;;;;;;;5.13;2.30;;;27.20;99.90;;;;;;5021835;28;20763;-85
2022/09/04 11:26:04;;;;;;;4.40;2.10;;;28.10;99.90;;;;;;5005022;28;20045;-85
2022/09/04 11:28:32;;;;;;;3.95;1.80;;;27.80;99.90;;;;;;4986783;28;20424;-84
2022/09/04 11:31:29;;;;;;;5.03;2.13;;;27.60;99.90;;;;;;5022093;28;20041;-85
2022/09/04 11:33:58;;;;;;;5.35;2.20;;;27.40;99.90;;;;;;4984646;28;20519;-84
2022/09/04 11:36:46;;;;;;;6.05;2.17;;;28.00;99.90;;;;;;5000603;28;20046;-85
2022/09/04 11:39:49;;;;;;;6.47;2.08;;;28.50;99.90;;;;;;5003869;28;20056;-84
2022/09/04 11:42:40;;;;;;;4.78;1.90;;;29.50;99.90;;;;;;5019341;28;20524;-85
2022/09/04 11:45:29;;;;;;;5.13;2.30;;;28.40;99.90;;;;;;4997852;28;20548;-85
2022/09/04 11:48:15;;;;;;;7.88;2.03;;;29.70;99.90;;;;;;4996400;28;20771;-85
2022/09/04 11:51:08;;;;;;;5.13;2.22;;;29.80;99.90;;;;;;5003782;28;20103;-85
2022/09/04 11:53:53;;;;;;;5.53;2.10;;;29.10;99.90;;;;;;5019509;28;20041;-85
2022/09/04 11:56:30;;;;;;;5.50;2.08;;;29.50;99.90;;;;;;5004899;28;20513;-85
2022/09/04 11:59:15;;;;;;;4.40;1.98;;;30.10;99.90;;;;;;4980806;28;20487;-85
2022/09/04 12:01:52;;;;;;;4.72;1.90;;;30.40;99.90;;;;;;5010270;28;20049;-85
2022/09/04 12:04:33;;;;;;;6.55;2.40;;;30.10;99.90;;;;;;5017197;28;20041;-85
2022/09/04 12:07:15;;;;;;;5.40;1.90;;;30.60;99.90;;;;;;4999503;28;20385;-85
2022/09/04 12:10:01;;;;;;;4.80;2.20;;;30.70;99.90;;;;;;5023983;28;20049;-85
2022/09/04 12:12:40;;;;;;;5.05;2.08;;;31.20;99.90;;;;;;5024134;28;20497;-84
2022/09/04 12:15:06;;;;;;;5.22;2.17;;;31.80;99.90;;;;;;4987463;28;20447;-85
2022/09/04 12:17:47;;;;;;;5.45;2.20;;;32.30;99.90;;;;;;5022092;28;20096;-85
2022/09/04 12:20:23;;;;;;;4.70;1.83;;;33.90;99.90;;;;;;4988317;28;20395;-85
2022/09/04 12:23:23;;;;;;;5.00;2.20;;;33.20;99.90;;;;;;4987302;28;20041;-85
2022/09/04 12:26:11;;;;;;;5.18;1.90;;;33.60;99.90;;;;;;5004677;28;20041;-86
2022/09/04 12:29:05;;;;;;;5.45;1.85;;;33.90;99.90;;;;;;5005524;28;20044;-84
2022/09/04 12:31:50;;;;;;;;;;;34.00;99.90;;;;;;5007985;28;20045;-85
2022/09/04 12:34:27;;;;;;;5.13;1.80;;;34.90;99.90;;;;;;5021835;28;20777;-90
2022/09/04 12:37:18;;;;;;;4.93;1.85;;;34.30;99.90;;;;;;5021698;28;20069;-85
2022/09/04 12:40:18;;;;;;;6.28;2.35;;;34.90;99.90;;;;;;5004151;28;20077;-87
2022/09/04 12:42:59;;;;;;;7.70;2.05;;;36.20;99.90;;;;;;5015443;28;20111;-89
2022/09/04 12:45:35;;;;;;;5.50;1.90;;;36.80;99.90;;;;;;4998598;28;20073;-87
2022/09/04 12:48:40;;;;;;;5.28;1.88;;;37.00;99.90;;;;;;4999966;28;20033;-87
2022/09/04 12:51:12;;;;;;;4.68;1.70;;;38.40;99.90;;;;;;4995153;28;20042;-88
2022/09/04 12:54:02;;;;;;;4.30;1.98;;;39.10;99.90;;;;;;5014900;28;20067;-88
2022/09/04 12:56:51;;;;;;;4.95;1.90;;;40.50;99.90;;;;;;5014509;28;20051;-87
2022/09/04 12:59:43;;;;;;;4.55;1.70;;;40.50;99.90;;;;;;4981575;28;20057;-86
2022/09/04 13:02:39;;;;;;;4.97;1.70;;;40.30;99.90;;;;;;4995243;28;20041;-85
2022/09/04 13:05:23;;;;;;;5.63;1.80;;;40.30;99.90;;;;;;4985210;28;20069;-87
2022/09/04 13:07:55;;;;;;;4.53;1.77;;;40.20;99.90;;;;;;5018483;28;20041;-87
2022/09/04 13:11:04;;;;;;;5.30;1.90;;;41.40;99.90;;;;;;4990911;28;20049;-86
2022/09/04 13:14:07;;;;;;;4.82;1.80;;;40.50;99.90;;;;;;4984516;28;20057;-87
2022/09/04 13:16:36;;;;;;;4.68;1.85;;;40.30;99.90;;;;;;4994093;28;20207;-87
2022/09/04 13:19:08;;;;;;;6.15;2.00;;;38.90;99.90;;;;;;4989055;28;20041;-87
2022/09/04 13:21:57;;;;;;;3.97;1.70;;;40.10;99.90;;;;;;5011899;28;20050;-87
2022/09/04 13:24:25;;;;;;;5.00;1.90;;;40.10;99.90;;;;;;4993535;28;20052;-87
2022/09/04 13:27:06;;;;;;;4.25;1.73;;;40.60;99.90;;;;;;5015663;28;20041;-88
2022/09/04 13:30:01;;;;;;;4.35;1.58;;;41.30;99.90;;;;;;4997029;28;20045;-88
2022/09/04 13:32:42;;;;;;;5.05;1.85;;;41.00;99.90;;;;;;4989402;28;20052;-88
2022/09/04 13:35:26;;;;;;;5.18;1.73;;;41.80;99.90;;;;;;4983362;28;20073;-86
2022/09/04 13:38:20;;;;;;;4.32;1.70;;;41.80;99.90;;;;;;5004313;28;20481;-87
2022/09/04 13:41:10;;;;;;;6.63;1.98;;;39.90;99.90;;;;;;4989296;28;20429;-88
2022/09/04 13:46:29;;;;;;;4.93;1.98;;;40.70;99.90;;;;;;5040708;28;20410;-66
2022/09/04 13:49:11;;;;;;;4.40;1.70;;;42.40;99.90;;;;;;5035231;28;20086;-66
2022/09/04 13:51:59;;;;;;;5.35;1.73;;;43.20;99.90;;;;;;5038677;28;20076;-66
2022/09/04 13:54:36;;;;;;;4.60;1.73;;;43.90;99.90;;;;;;5032835;28;20038;-66
2022/09/04 13:57:15;;;;;;;4.75;1.70;;;44.20;99.90;;;;;;5036848;28;20490;-66
2022/09/04 13:59:45;;;;;;;3.90;1.63;;;43.30;99.90;;;;;;5034959;28;20129;-66
2022/09/04 14:02:13;;;;;;;4.75;1.60;;;44.30;99.90;;;;;;5038553;28;20167;-66
2022/09/04 14:05:08;;;;;;;3.50;1.50;;;43.50;99.90;;;;;;5041370;28;20533;-66
2022/09/04 14:07:37;;;;;;;4.03;1.85;;;43.30;99.90;;;;;;5035510;28;20040;-66
2022/09/04 14:10:17;;;;;;;4.22;1.67;;;44.40;99.90;;;;;;5020905;28;20042;-66
2022/09/04 14:13:08;;;;;;;3.78;1.80;;;44.30;99.90;;;;;;5037061;28;20041;-66
2022/09/04 14:16:01;;;;;;;5.13;1.70;;;43.80;99.90;;;;;;5027765;28;20410;-66
2022/09/04 14:18:40;;;;;;;4.30;1.80;;;43.80;99.90;;;;;;5035531;28;20036;-66
2022/09/04 14:21:15;;;;;;;4.32;1.90;;;44.00;99.90;;;;;;5022021;28;20394;-66
2022/09/04 14:23:56;;;;;;;5.80;1.77;;;44.40;99.90;;;;;;5035683;28;20490;-66
2022/09/04 14:26:32;;;;;;;5.70;1.88;;;44.30;99.90;;;;;;5036150;28;20438;-66
2022/09/04 14:29:35;;;;;;;4.78;1.67;;;44.10;99.90;;;;;;5037821;28;20479;-65
2022/09/04 14:32:31;;;;;;;3.95;1.63;;;43.80;99.90;;;;;;5034654;28;20041;-65
2022/09/04 14:35:16;;;;;;;6.30;1.67;;;45.10;99.90;;;;;;5033106;28;20101;-66
2022/09/04 14:38:01;;;;;;;4.20;1.70;;;44.60;99.90;;;;;;5030214;28;20049;-66
2022/09/04 14:40:34;;;;;;;4.72;1.60;;;44.10;99.90;;;;;;5036085;28;20068;-66
2022/09/04 14:43:22;;;;;;;3.85;1.75;;;44.70;99.90;;;;;;5043574;28;20037;-65
2022/09/04 14:46:03;;;;;;;5.72;1.73;;;43.90;99.90;;;;;;5019530;28;20041;-66
2022/09/04 14:48:39;;;;;;;4.00;1.88;;;44.90;99.90;;;;;;5031283;28;20442;-66
2022/09/04 14:51:32;;;;;;;5.07;1.45;;;45.40;99.90;;;;;;5039601;28;20398;-66